VIV1069 MMGL-MMMX
Flight info
| Callsign | VIV1069 |
|---|---|
| Flight time | 0h 58m |
| Altitude | 35000 |
| Route | EMIRI1B EMIRI UT119 ESPOS ESPOS3A |
| Aircraft | A321/M-SDE3FGHIRWY/LB1 |
Departure
| Time | 2026-05-08 03:04 |
|---|---|
| Airport | Guadalajara International Airport (MMGL) |
Arrival
| Time | 2026-05-08 04:02 |
|---|---|
| Airport | Mexico City Benito Juárez International Airport (MMMX) |
| Time | Latitude | Longitude | Altitude | Speed | Heading |
|---|---|---|---|---|---|
| 2026-05-08 02:43 | 20.52343 | -103.29823 | 5029 ft | 0 kts | 19° |
| 2026-05-08 02:54 | 20.52339 | -103.29824 | 5029 ft | 1 kts | 19° |
| 2026-05-08 02:54 | 20.52330 | -103.29827 | 5029 ft | 2 kts | 19° |
| 2026-05-08 02:54 | 20.52318 | -103.29832 | 5026 ft | 2 kts | 19° |
| 2026-05-08 02:54 | 20.52305 | -103.29837 | 5029 ft | 2 kts | 19° |
| 2026-05-08 02:55 | 20.52293 | -103.29841 | 5029 ft | 1 kts | 40° |
| 2026-05-08 02:55 | 20.52288 | -103.29856 | 5029 ft | 2 kts | 102° |
| 2026-05-08 02:55 | 20.52290 | -103.29865 | 5029 ft | 0 kts | 117° |
| 2026-05-08 02:57 | 20.52290 | -103.29864 | 5029 ft | 1 kts | 117° |
| 2026-05-08 02:58 | 20.52276 | -103.29836 | 5027 ft | 8 kts | 117° |
| 2026-05-08 02:58 | 20.52241 | -103.29771 | 5029 ft | 11 kts | 134° |
| 2026-05-08 02:58 | 20.52164 | -103.29773 | 5029 ft | 12 kts | 200° |
| 2026-05-08 02:58 | 20.52077 | -103.29789 | 5029 ft | 13 kts | 154° |
| 2026-05-08 02:59 | 20.52027 | -103.29696 | 5029 ft | 16 kts | 113° |
| 2026-05-08 02:59 | 20.51981 | -103.29586 | 5030 ft | 14 kts | 116° |
| 2026-05-08 02:59 | 20.51962 | -103.29550 | 5030 ft | 0 kts | 122° |
| 2026-05-08 02:59 | 20.51957 | -103.29542 | 5030 ft | 2 kts | 123° |
| 2026-05-08 03:00 | 20.51942 | -103.29527 | 5030 ft | 4 kts | 147° |
| 2026-05-08 03:00 | 20.51918 | -103.29534 | 5028 ft | 4 kts | 205° |
| 2026-05-08 03:00 | 20.51913 | -103.29537 | 5030 ft | 0 kts | 205° |
| 2026-05-08 03:01 | 20.51906 | -103.29540 | 5009 ft | 3 kts | 205° |
| 2026-05-08 03:02 | 20.51879 | -103.29554 | 5032 ft | 6 kts | 205° |
| 2026-05-08 03:02 | 20.51831 | -103.29578 | 5030 ft | 9 kts | 205° |
| 2026-05-08 03:02 | 20.51821 | -103.29617 | 5030 ft | 0 kts | 295° |
| 2026-05-08 03:03 | 20.51827 | -103.29631 | 5027 ft | 8 kts | 295° |
| 2026-05-08 03:03 | 20.51903 | -103.29817 | 5029 ft | 59 kts | 292° |
| 2026-05-08 03:03 | 20.52165 | -103.30434 | 5026 ft | 121 kts | 294° |
| 2026-05-08 03:03 | 20.52580 | -103.31423 | 5030 ft | 170 kts | 294° |
| 2026-05-08 03:04 | 20.53077 | -103.32595 | 5768 ft | 165 kts | 292° |
| 2026-05-08 03:04 | 20.53536 | -103.33716 | 6392 ft | 169 kts | 292° |
| 2026-05-08 03:04 | 20.54011 | -103.34921 | 6568 ft | 186 kts | 292° |
| 2026-05-08 03:04 | 20.54536 | -103.36254 | 6693 ft | 203 kts | 293° |
| 2026-05-08 03:05 | 20.55108 | -103.37696 | 6847 ft | 216 kts | 293° |
| 2026-05-08 03:05 | 20.55707 | -103.39199 | 7107 ft | 223 kts | 292° |
| 2026-05-08 03:05 | 20.56320 | -103.40732 | 7498 ft | 226 kts | 293° |
| 2026-05-08 03:05 | 20.56931 | -103.42266 | 8047 ft | 224 kts | 289° |
| 2026-05-08 03:06 | 20.57155 | -103.43911 | 8474 ft | 231 kts | 263° |
| 2026-05-08 03:06 | 20.56566 | -103.45542 | 8725 ft | 248 kts | 233° |
| 2026-05-08 03:06 | 20.55130 | -103.46683 | 8851 ft | 274 kts | 201° |
| 2026-05-08 03:06 | 20.53192 | -103.46782 | 9110 ft | 296 kts | 167° |
| 2026-05-08 03:07 | 20.51365 | -103.45727 | 9635 ft | 305 kts | 141° |
| 2026-05-08 03:07 | 20.49853 | -103.44121 | 10190 ft | 309 kts | 133° |
| 2026-05-08 03:07 | 20.48510 | -103.42323 | 10771 ft | 310 kts | 128° |
| 2026-05-08 03:07 | 20.47227 | -103.40477 | 11398 ft | 309 kts | 128° |
| 2026-05-08 03:08 | 20.45942 | -103.38645 | 12060 ft | 307 kts | 129° |
| 2026-05-08 03:08 | 20.44633 | -103.36850 | 12713 ft | 306 kts | 129° |
| 2026-05-08 03:08 | 20.43295 | -103.35086 | 13371 ft | 304 kts | 131° |
| 2026-05-08 03:08 | 20.41949 | -103.33360 | 14058 ft | 301 kts | 131° |
| 2026-05-08 03:09 | 20.40602 | -103.31657 | 14627 ft | 301 kts | 132° |
| 2026-05-08 03:09 | 20.39241 | -103.29950 | 15094 ft | 304 kts | 132° |
| 2026-05-08 03:09 | 20.37835 | -103.28191 | 15059 ft | 319 kts | 132° |
| 2026-05-08 03:09 | 20.36358 | -103.26344 | 15171 ft | 335 kts | 132° |
| 2026-05-08 03:10 | 20.34814 | -103.24412 | 15310 ft | 350 kts | 132° |
| 2026-05-08 03:10 | 20.33205 | -103.22396 | 15436 ft | 362 kts | 132° |
| 2026-05-08 03:10 | 20.31560 | -103.20331 | 15770 ft | 369 kts | 132° |
| 2026-05-08 03:10 | 20.29915 | -103.18265 | 16189 ft | 373 kts | 132° |
| 2026-05-08 03:11 | 20.28232 | -103.16145 | 16608 ft | 377 kts | 131° |
| 2026-05-08 03:11 | 20.26531 | -103.14004 | 17059 ft | 380 kts | 132° |
| 2026-05-08 03:11 | 20.24818 | -103.11851 | 17541 ft | 382 kts | 132° |
| 2026-05-08 03:11 | 20.23096 | -103.09689 | 18065 ft | 384 kts | 132° |
| 2026-05-08 03:12 | 20.21363 | -103.07516 | 18494 ft | 386 kts | 132° |
| 2026-05-08 03:12 | 20.19617 | -103.05326 | 18878 ft | 389 kts | 132° |
| 2026-05-08 03:12 | 20.17858 | -103.03123 | 19288 ft | 392 kts | 133° |
| 2026-05-08 03:12 | 20.16090 | -103.00908 | 19690 ft | 394 kts | 133° |
| 2026-05-08 03:13 | 20.14304 | -102.98669 | 20089 ft | 397 kts | 133° |
| 2026-05-08 03:13 | 20.12511 | -102.96423 | 20462 ft | 400 kts | 133° |
| 2026-05-08 03:13 | 20.10701 | -102.94158 | 20885 ft | 402 kts | 133° |
| 2026-05-08 03:13 | 20.08883 | -102.91888 | 21280 ft | 405 kts | 133° |
| 2026-05-08 03:14 | 20.07048 | -102.89600 | 21639 ft | 408 kts | 133° |
| 2026-05-08 03:14 | 20.05204 | -102.87302 | 22041 ft | 409 kts | 133° |
| 2026-05-08 03:14 | 20.03352 | -102.84990 | 22423 ft | 412 kts | 133° |
| 2026-05-08 03:14 | 20.01489 | -102.82661 | 22784 ft | 414 kts | 133° |
| 2026-05-08 03:15 | 19.99621 | -102.80323 | 23163 ft | 416 kts | 133° |
| 2026-05-08 03:15 | 19.97743 | -102.77972 | 23586 ft | 417 kts | 133° |
| 2026-05-08 03:15 | 19.95860 | -102.75621 | 23906 ft | 418 kts | 133° |
| 2026-05-08 03:15 | 19.93992 | -102.73294 | 24210 ft | 420 kts | 133° |
| 2026-05-08 03:16 | 19.92089 | -102.70927 | 24488 ft | 422 kts | 133° |
| 2026-05-08 03:16 | 19.90175 | -102.68544 | 24772 ft | 425 kts | 133° |
| 2026-05-08 03:16 | 19.88248 | -102.66146 | 25068 ft | 427 kts | 133° |
| 2026-05-08 03:16 | 19.86313 | -102.63739 | 25341 ft | 430 kts | 133° |
| 2026-05-08 03:17 | 19.84362 | -102.61318 | 25613 ft | 433 kts | 133° |
| 2026-05-08 03:17 | 19.82402 | -102.58883 | 25874 ft | 435 kts | 133° |
| 2026-05-08 03:17 | 19.80633 | -102.56245 | 26124 ft | 442 kts | 123° |
| 2026-05-08 03:17 | 19.79299 | -102.53272 | 26374 ft | 448 kts | 115° |
| 2026-05-08 03:18 | 19.78144 | -102.50189 | 26631 ft | 451 kts | 115° |
| 2026-05-08 03:18 | 19.76967 | -102.47088 | 26893 ft | 453 kts | 115° |
| 2026-05-08 03:18 | 19.75775 | -102.43977 | 27160 ft | 456 kts | 115° |
| 2026-05-08 03:18 | 19.74571 | -102.40850 | 27417 ft | 459 kts | 116° |
| 2026-05-08 03:19 | 19.73770 | -102.38772 | 27576 ft | 460 kts | 116° |
| 2026-05-08 03:19 | 19.72154 | -102.34593 | 27918 ft | 463 kts | 116° |
| 2026-05-08 03:19 | 19.70931 | -102.31424 | 28198 ft | 465 kts | 116° |
| 2026-05-08 03:19 | 19.69705 | -102.28241 | 28457 ft | 467 kts | 115° |
| 2026-05-08 03:20 | 19.68484 | -102.25060 | 28802 ft | 466 kts | 115° |
| 2026-05-08 03:20 | 19.67657 | -102.22903 | 29025 ft | 466 kts | 115° |
| 2026-05-08 03:20 | 19.66449 | -102.19760 | 29337 ft | 466 kts | 115° |
| 2026-05-08 03:20 | 19.65222 | -102.16577 | 29656 ft | 466 kts | 115° |
| 2026-05-08 03:21 | 19.63994 | -102.13393 | 29969 ft | 467 kts | 116° |
| 2026-05-08 03:21 | 19.62768 | -102.10206 | 30246 ft | 467 kts | 116° |
| 2026-05-08 03:21 | 19.61540 | -102.07020 | 30580 ft | 465 kts | 116° |
| 2026-05-08 03:21 | 19.60318 | -102.03849 | 30893 ft | 464 kts | 116° |
| 2026-05-08 03:22 | 19.59091 | -102.00675 | 30989 ft | 467 kts | 116° |
| 2026-05-08 03:22 | 19.56581 | -101.94214 | 31010 ft | 480 kts | 116° |
| 2026-05-08 03:23 | 19.54004 | -101.87582 | 31015 ft | 492 kts | 115° |
| 2026-05-08 03:23 | 19.51382 | -101.80804 | 31006 ft | 499 kts | 115° |
| 2026-05-08 03:24 | 19.48744 | -101.73993 | 30999 ft | 500 kts | 115° |
| 2026-05-08 03:24 | 19.46097 | -101.67179 | 30998 ft | 500 kts | 115° |
| 2026-05-08 03:25 | 19.43447 | -101.60362 | 31009 ft | 500 kts | 115° |
| 2026-05-08 03:25 | 19.40813 | -101.53582 | 30997 ft | 500 kts | 115° |
| 2026-05-08 03:26 | 19.38162 | -101.46782 | 30997 ft | 499 kts | 115° |
| 2026-05-08 03:26 | 19.35502 | -101.39982 | 30976 ft | 499 kts | 115° |
| 2026-05-08 03:27 | 19.32841 | -101.33200 | 30979 ft | 499 kts | 115° |
| 2026-05-08 03:27 | 19.30184 | -101.26421 | 30928 ft | 499 kts | 115° |
| 2026-05-08 03:28 | 19.27530 | -101.19644 | 30929 ft | 499 kts | 115° |
| 2026-05-08 03:28 | 19.24870 | -101.12859 | 30928 ft | 498 kts | 115° |
| 2026-05-08 03:29 | 19.22206 | -101.06082 | 30928 ft | 499 kts | 115° |
| 2026-05-08 03:29 | 19.19535 | -100.99303 | 30883 ft | 498 kts | 115° |
| 2026-05-08 03:30 | 19.15527 | -100.89156 | 30884 ft | 498 kts | 115° |
| 2026-05-08 03:31 | 19.10197 | -100.75668 | 30883 ft | 497 kts | 115° |
| 2026-05-08 03:32 | 19.06197 | -100.65551 | 30869 ft | 496 kts | 115° |
| 2026-05-08 03:32 | 19.03525 | -100.58825 | 30868 ft | 496 kts | 115° |
| 2026-05-08 03:33 | 19.00858 | -100.52106 | 30877 ft | 496 kts | 115° |
| 2026-05-08 03:33 | 18.98189 | -100.45393 | 30837 ft | 495 kts | 115° |
| 2026-05-08 03:33 | 18.96848 | -100.42034 | 30632 ft | 494 kts | 115° |
| 2026-05-08 03:34 | 18.95513 | -100.38685 | 30405 ft | 494 kts | 115° |
| 2026-05-08 03:34 | 18.94182 | -100.35340 | 30171 ft | 494 kts | 115° |
| 2026-05-08 03:34 | 18.92866 | -100.32031 | 29944 ft | 494 kts | 115° |
| 2026-05-08 03:34 | 18.91534 | -100.28684 | 29689 ft | 494 kts | 115° |
| 2026-05-08 03:35 | 18.90200 | -100.25340 | 29458 ft | 494 kts | 115° |
| 2026-05-08 03:35 | 18.88860 | -100.21988 | 29189 ft | 495 kts | 115° |
| 2026-05-08 03:35 | 18.87523 | -100.18647 | 28930 ft | 491 kts | 115° |
| 2026-05-08 03:35 | 18.86202 | -100.15343 | 28667 ft | 487 kts | 115° |
| 2026-05-08 03:36 | 18.84887 | -100.12056 | 28456 ft | 484 kts | 115° |
| 2026-05-08 03:36 | 18.83614 | -100.08875 | 28181 ft | 481 kts | 115° |
| 2026-05-08 03:36 | 18.82309 | -100.05627 | 27922 ft | 479 kts | 115° |
| 2026-05-08 03:36 | 18.81010 | -100.02397 | 27620 ft | 476 kts | 115° |
| 2026-05-08 03:37 | 18.79720 | -99.99193 | 27322 ft | 474 kts | 115° |
| 2026-05-08 03:37 | 18.78436 | -99.96001 | 27057 ft | 471 kts | 115° |
| 2026-05-08 03:37 | 18.77159 | -99.92824 | 26759 ft | 469 kts | 115° |
| 2026-05-08 03:37 | 18.75892 | -99.89666 | 26481 ft | 467 kts | 115° |
| 2026-05-08 03:38 | 18.74804 | -99.86439 | 26193 ft | 467 kts | 105° |
| 2026-05-08 03:38 | 18.74400 | -99.83035 | 25967 ft | 470 kts | 92° |
| 2026-05-08 03:38 | 18.74743 | -99.79610 | 25958 ft | 473 kts | 79° |
| 2026-05-08 03:38 | 18.75797 | -99.76310 | 25968 ft | 477 kts | 68° |
| 2026-05-08 03:39 | 18.77150 | -99.73108 | 25967 ft | 478 kts | 68° |
| 2026-05-08 03:39 | 18.78510 | -99.69906 | 25967 ft | 478 kts | 68° |
| 2026-05-08 03:39 | 18.79871 | -99.66711 | 25970 ft | 478 kts | 68° |
| 2026-05-08 03:39 | 18.81233 | -99.63511 | 25925 ft | 479 kts | 68° |
| 2026-05-08 03:40 | 18.82581 | -99.60333 | 25044 ft | 483 kts | 68° |
| 2026-05-08 03:40 | 18.83946 | -99.57111 | 24573 ft | 476 kts | 68° |
| 2026-05-08 03:40 | 18.85304 | -99.53915 | 24154 ft | 467 kts | 68° |
| 2026-05-08 03:40 | 18.86604 | -99.50848 | 23645 ft | 462 kts | 69° |
| 2026-05-08 03:41 | 18.87911 | -99.47758 | 23071 ft | 458 kts | 68° |
| 2026-05-08 03:41 | 18.89198 | -99.44714 | 22626 ft | 449 kts | 69° |
| 2026-05-08 03:41 | 18.90458 | -99.41739 | 22236 ft | 440 kts | 69° |
| 2026-05-08 03:41 | 18.91693 | -99.38812 | 21610 ft | 429 kts | 69° |
| 2026-05-08 03:42 | 18.92881 | -99.35996 | 21005 ft | 410 kts | 68° |
| 2026-05-08 03:42 | 18.94016 | -99.33304 | 20414 ft | 392 kts | 69° |
| 2026-05-08 03:42 | 18.95104 | -99.30725 | 19827 ft | 376 kts | 69° |
| 2026-05-08 03:42 | 18.95793 | -99.28152 | 19254 ft | 356 kts | 88° |
| 2026-05-08 03:43 | 18.95645 | -99.25624 | 18697 ft | 338 kts | 107° |
| 2026-05-08 03:43 | 18.94780 | -99.23372 | 18128 ft | 328 kts | 124° |
| 2026-05-08 03:43 | 18.93466 | -99.21438 | 17757 ft | 320 kts | 128° |
| 2026-05-08 03:43 | 18.92165 | -99.19578 | 17662 ft | 308 kts | 129° |
| 2026-05-08 03:44 | 18.90919 | -99.17780 | 17676 ft | 300 kts | 128° |
| 2026-05-08 03:44 | 18.89686 | -99.15996 | 17678 ft | 300 kts | 127° |
| 2026-05-08 03:44 | 18.88676 | -99.14054 | 17675 ft | 305 kts | 113° |
| 2026-05-08 03:44 | 18.88131 | -99.11879 | 17671 ft | 309 kts | 102° |
| 2026-05-08 03:45 | 18.87753 | -99.09644 | 17666 ft | 309 kts | 101° |
| 2026-05-08 03:45 | 18.87377 | -99.07441 | 17663 ft | 309 kts | 103° |
| 2026-05-08 03:45 | 18.87190 | -99.05186 | 17661 ft | 311 kts | 87° |
| 2026-05-08 03:45 | 18.87802 | -99.02994 | 17660 ft | 316 kts | 62° |
| 2026-05-08 03:46 | 18.89221 | -99.01228 | 17655 ft | 319 kts | 37° |
| 2026-05-08 03:46 | 18.91227 | -99.00217 | 17692 ft | 323 kts | 12° |
| 2026-05-08 03:46 | 18.93455 | -99.00086 | 17693 ft | 322 kts | 357° |
| 2026-05-08 03:46 | 18.95700 | -99.00186 | 17691 ft | 324 kts | 357° |
| 2026-05-08 03:47 | 18.97948 | -99.00295 | 17691 ft | 323 kts | 357° |
| 2026-05-08 03:47 | 19.00200 | -99.00403 | 17695 ft | 324 kts | 357° |
| 2026-05-08 03:47 | 19.02452 | -99.00506 | 17695 ft | 324 kts | 357° |
| 2026-05-08 03:47 | 19.04698 | -99.00603 | 17742 ft | 324 kts | 359° |
| 2026-05-08 03:48 | 19.06910 | -99.00244 | 17739 ft | 322 kts | 23° |
| 2026-05-08 03:48 | 19.08776 | -98.99003 | 17743 ft | 318 kts | 47° |
| 2026-05-08 03:48 | 19.10242 | -98.97253 | 17756 ft | 318 kts | 53° |
| 2026-05-08 03:48 | 19.11625 | -98.95424 | 17761 ft | 318 kts | 54° |
| 2026-05-08 03:49 | 19.13004 | -98.93595 | 17779 ft | 319 kts | 53° |
| 2026-05-08 03:49 | 19.14379 | -98.91760 | 17786 ft | 318 kts | 53° |
| 2026-05-08 03:49 | 19.15759 | -98.89925 | 17790 ft | 319 kts | 53° |
| 2026-05-08 03:49 | 19.17136 | -98.88088 | 17790 ft | 318 kts | 53° |
| 2026-05-08 03:50 | 19.18511 | -98.86253 | 17764 ft | 320 kts | 53° |
| 2026-05-08 03:50 | 19.19882 | -98.84419 | 17358 ft | 315 kts | 53° |
| 2026-05-08 03:50 | 19.21225 | -98.82627 | 16997 ft | 315 kts | 53° |
| 2026-05-08 03:50 | 19.22580 | -98.80814 | 16617 ft | 313 kts | 53° |
| 2026-05-08 03:51 | 19.23928 | -98.79010 | 16266 ft | 312 kts | 53° |
| 2026-05-08 03:51 | 19.25262 | -98.77223 | 15907 ft | 309 kts | 53° |
| 2026-05-08 03:51 | 19.26568 | -98.75430 | 15808 ft | 307 kts | 53° |
| 2026-05-08 03:51 | 19.27868 | -98.73623 | 15799 ft | 309 kts | 53° |
| 2026-05-08 03:52 | 19.29217 | -98.71849 | 15794 ft | 310 kts | 44° |
| 2026-05-08 03:52 | 19.30984 | -98.70569 | 15788 ft | 308 kts | 21° |
| 2026-05-08 03:52 | 19.33050 | -98.70081 | 15805 ft | 305 kts | 359° |
| 2026-05-08 03:52 | 19.35127 | -98.70434 | 15801 ft | 303 kts | 337° |
| 2026-05-08 03:53 | 19.36924 | -98.71557 | 15817 ft | 300 kts | 315° |
| 2026-05-08 03:53 | 19.38256 | -98.73242 | 15828 ft | 299 kts | 304° |
| 2026-05-08 03:53 | 19.39725 | -98.74799 | 15839 ft | 303 kts | 326° |
| 2026-05-08 03:53 | 19.41599 | -98.75851 | 15849 ft | 306 kts | 333° |
| 2026-05-08 03:54 | 19.43530 | -98.76804 | 15863 ft | 306 kts | 333° |
| 2026-05-08 03:54 | 19.45438 | -98.77737 | 15853 ft | 306 kts | 333° |
| 2026-05-08 03:54 | 19.47401 | -98.78693 | 15861 ft | 306 kts | 333° |
| 2026-05-08 03:54 | 19.49336 | -98.79633 | 15820 ft | 308 kts | 333° |
| 2026-05-08 03:55 | 19.51254 | -98.80564 | 15380 ft | 306 kts | 333° |
| 2026-05-08 03:55 | 19.53180 | -98.81499 | 14923 ft | 304 kts | 333° |
| 2026-05-08 03:55 | 19.55097 | -98.82430 | 14462 ft | 301 kts | 333° |
| 2026-05-08 03:55 | 19.56998 | -98.83345 | 14017 ft | 299 kts | 333° |
| 2026-05-08 03:56 | 19.58889 | -98.84252 | 13499 ft | 297 kts | 333° |
| 2026-05-08 03:56 | 19.60763 | -98.85155 | 12995 ft | 295 kts | 333° |
| 2026-05-08 03:56 | 19.62435 | -98.86347 | 12507 ft | 288 kts | 310° |
| 2026-05-08 03:56 | 19.63409 | -98.88125 | 12058 ft | 276 kts | 284° |
| 2026-05-08 03:57 | 19.63498 | -98.90106 | 11592 ft | 267 kts | 256° |
| 2026-05-08 03:57 | 19.62754 | -98.91863 | 11143 ft | 261 kts | 236° |
| 2026-05-08 03:57 | 19.61681 | -98.93402 | 10691 ft | 258 kts | 221° |
| 2026-05-08 03:57 | 19.60160 | -98.94351 | 10251 ft | 254 kts | 196° |
| 2026-05-08 03:58 | 19.58434 | -98.94528 | 9767 ft | 247 kts | 171° |
| 2026-05-08 03:58 | 19.56768 | -98.94195 | 9429 ft | 240 kts | 168° |
| 2026-05-08 03:58 | 19.55173 | -98.93864 | 9058 ft | 226 kts | 167° |
| 2026-05-08 03:58 | 19.53686 | -98.93692 | 8947 ft | 210 kts | 180° |
| 2026-05-08 03:59 | 19.52282 | -98.93957 | 8957 ft | 201 kts | 196° |
| 2026-05-08 03:59 | 19.51064 | -98.94603 | 8993 ft | 193 kts | 214° |
| 2026-05-08 03:59 | 19.50100 | -98.95545 | 8981 ft | 187 kts | 234° |
| 2026-05-08 03:59 | 19.49385 | -98.96683 | 8995 ft | 183 kts | 239° |
| 2026-05-08 04:00 | 19.48728 | -98.97833 | 8993 ft | 182 kts | 240° |
| 2026-05-08 04:00 | 19.48081 | -98.98984 | 8857 ft | 183 kts | 241° |
| 2026-05-08 04:00 | 19.47433 | -99.00139 | 8605 ft | 181 kts | 240° |
| 2026-05-08 04:00 | 19.46793 | -99.01283 | 8310 ft | 179 kts | 239° |
| 2026-05-08 04:01 | 19.46167 | -99.02400 | 8031 ft | 174 kts | 240° |
| 2026-05-08 04:01 | 19.45560 | -99.03482 | 7772 ft | 171 kts | 242° |
| 2026-05-08 04:01 | 19.44963 | -99.04549 | 7520 ft | 166 kts | 242° |
| 2026-05-08 04:01 | 19.44378 | -99.05592 | 7316 ft | 164 kts | 242° |
| 2026-05-08 04:02 | 19.43893 | -99.06464 | 7303 ft | 97 kts | 238° |
| 2026-05-08 04:02 | 19.43657 | -99.06878 | 7302 ft | 52 kts | 240° |
| 2026-05-08 04:02 | 19.43504 | -99.07159 | 7302 ft | 39 kts | 239° |
| 2026-05-08 04:02 | 19.43383 | -99.07393 | 7304 ft | 30 kts | 258° |
| 2026-05-08 04:03 | 19.43426 | -99.07534 | 7303 ft | 13 kts | 300° |
| 2026-05-08 04:03 | 19.43452 | -99.07584 | 7303 ft | 0 kts | 301° |
| 2026-05-08 04:04 | 19.43453 | -99.07586 | 7303 ft | 3 kts | 301° |
| 2026-05-08 04:04 | 19.43471 | -99.07617 | 7303 ft | 7 kts | 300° |
| 2026-05-08 04:04 | 19.43501 | -99.07671 | 7303 ft | 10 kts | 300° |
| 2026-05-08 04:05 | 19.43536 | -99.07735 | 7303 ft | 12 kts | 300° |
| 2026-05-08 04:05 | 19.43564 | -99.07785 | 7303 ft | 1 kts | 299° |
| 2026-05-08 04:05 | 19.43573 | -99.07804 | 7303 ft | 4 kts | 297° |
| 2026-05-08 04:05 | 19.43568 | -99.07844 | 7303 ft | 7 kts | 243° |
| 2026-05-08 04:06 | 19.43537 | -99.07899 | 7303 ft | 10 kts | 237° |
| 2026-05-08 04:06 | 19.43496 | -99.07971 | 7303 ft | 12 kts | 239° |
| 2026-05-08 04:06 | 19.43447 | -99.08058 | 7303 ft | 15 kts | 239° |
| 2026-05-08 04:06 | 19.43390 | -99.08160 | 7303 ft | 17 kts | 239° |
| 2026-05-08 04:07 | 19.43324 | -99.08278 | 7303 ft | 20 kts | 239° |
| 2026-05-08 04:07 | 19.43276 | -99.08362 | 7303 ft | 21 kts | 238° |
| 2026-05-08 04:07 | 19.43217 | -99.08467 | 7303 ft | 17 kts | 239° |
| 2026-05-08 04:07 | 19.43164 | -99.08561 | 7303 ft | 14 kts | 239° |
| 2026-05-08 04:08 | 19.43127 | -99.08693 | 7303 ft | 15 kts | 295° |
| 2026-05-08 04:08 | 19.43160 | -99.08751 | 7303 ft | 12 kts | 307° |
| 2026-05-08 04:08 | 19.43252 | -99.08790 | 7303 ft | 10 kts | 11° |
| 2026-05-08 04:08 | 19.43295 | -99.08768 | 7303 ft | 7 kts | 45° |
| 2026-05-08 04:09 | 19.43290 | -99.08727 | 7303 ft | 7 kts | 150° |
| 2026-05-08 04:09 | 19.43277 | -99.08719 | 7303 ft | 0 kts | 149° |